createdAt,value
2024-01-18T00:00:37.594Z,980.04
2024-01-18T00:01:37.747Z,980.04
2024-01-18T00:02:38.101Z,980.04
2024-01-18T00:03:38.534Z,980.06
2024-01-18T00:04:38.927Z,980.09
2024-01-18T00:05:39.155Z,980.11
2024-01-18T00:06:39.596Z,980.12
2024-01-18T00:07:39.798Z,980.13
2024-01-18T00:08:40.157Z,980.15
2024-01-18T00:09:40.507Z,980.17
2024-01-18T00:10:40.794Z,980.21
2024-01-18T00:11:41.141Z,980.25
2024-01-18T00:12:41.619Z,980.27
2024-01-18T00:13:41.823Z,980.27
2024-01-18T00:14:42.140Z,980.27
2024-01-18T00:15:42.523Z,980.27
2024-01-18T00:16:44.268Z,980.27
2024-01-18T00:17:43.261Z,980.27
2024-01-18T00:18:43.730Z,980.27
2024-01-18T00:19:44.025Z,980.28
2024-01-18T00:20:44.181Z,980.28
2024-01-18T00:21:44.478Z,980.29
2024-01-18T00:22:44.819Z,980.29
2024-01-18T00:23:45.126Z,980.31
2024-01-18T00:24:45.439Z,980.33
2024-01-18T00:25:45.802Z,980.35
2024-01-18T00:26:46.084Z,980.38
2024-01-18T00:27:46.453Z,980.40
2024-01-18T00:28:46.747Z,980.41
2024-01-18T00:29:47.115Z,980.42
2024-01-18T00:30:47.444Z,980.46
2024-01-18T00:31:47.838Z,980.48
2024-01-18T00:32:48.196Z,980.49
2024-01-18T00:33:48.495Z,980.50
2024-01-18T00:34:48.775Z,980.52
2024-01-18T00:35:49.223Z,980.55
2024-01-18T00:36:49.582Z,980.55
2024-01-18T00:37:49.797Z,980.55
2024-01-18T00:38:50.112Z,980.56
2024-01-18T00:39:50.449Z,980.57
2024-01-18T00:40:50.788Z,980.59
2024-01-18T00:41:51.205Z,980.61
2024-01-18T00:42:51.463Z,980.64
2024-01-18T00:43:51.784Z,980.66
2024-01-18T00:44:52.090Z,980.68
2024-01-18T00:45:52.510Z,980.69
2024-01-18T00:46:52.800Z,980.70
2024-01-18T00:47:53.160Z,980.69
2024-01-18T00:48:53.504Z,980.68
2024-01-18T00:49:53.823Z,980.67
2024-01-18T00:50:54.252Z,980.66
2024-01-18T00:51:54.387Z,980.64
2024-01-18T00:52:54.741Z,980.64
2024-01-18T00:53:55.095Z,980.64
2024-01-18T00:54:55.386Z,980.63
2024-01-18T00:55:55.744Z,980.64
2024-01-18T00:56:56.055Z,980.65
2024-01-18T00:57:56.365Z,980.65
2024-01-18T00:58:56.673Z,980.66
2024-01-18T00:59:57.015Z,980.66
2024-01-18T01:00:57.383Z,980.67
2024-01-18T01:01:57.716Z,980.68
2024-01-18T01:02:58.040Z,980.70
2024-01-18T01:03:58.419Z,980.73
2024-01-18T01:04:58.714Z,980.74
2024-01-18T01:05:59.060Z,980.76
2024-01-18T01:06:59.361Z,980.77
2024-01-18T01:07:59.827Z,980.78
2024-01-18T01:09:00.054Z,980.80
2024-01-18T01:10:00.349Z,980.82
2024-01-18T01:11:00.650Z,980.82
2024-01-18T01:12:01.096Z,980.82
2024-01-18T01:13:01.282Z,980.82
2024-01-18T01:14:01.684Z,980.84
2024-01-18T01:15:02.116Z,980.85
2024-01-18T01:16:02.472Z,980.86
2024-01-18T01:17:02.660Z,980.87
2024-01-18T01:18:03.097Z,980.87
2024-01-18T01:19:03.391Z,980.87
2024-01-18T01:20:05.972Z,980.85
2024-01-18T01:21:04.935Z,980.85
2024-01-18T01:22:04.343Z,980.85
2024-01-18T01:23:04.699Z,980.85
2024-01-18T01:24:05.042Z,980.84
2024-01-18T01:25:05.308Z,980.84
2024-01-18T01:26:05.686Z,980.84
2024-01-18T01:27:05.990Z,980.84
2024-01-18T01:28:06.353Z,980.85
2024-01-18T01:29:06.666Z,980.86
2024-01-18T01:30:07.057Z,980.88
2024-01-18T01:31:07.361Z,980.92
2024-01-18T01:32:07.702Z,980.95
2024-01-18T01:33:08.315Z,980.98
2024-01-18T01:34:08.506Z,981.01
2024-01-18T01:35:08.698Z,981.03
2024-01-18T01:36:09.090Z,981.05
2024-01-18T01:37:09.409Z,981.06
2024-01-18T01:38:09.734Z,981.09
2024-01-18T01:39:10.072Z,981.10
2024-01-18T01:40:10.447Z,981.11
2024-01-18T01:41:10.751Z,981.13
2024-01-18T01:42:11.156Z,981.13
2024-01-18T01:43:11.386Z,981.15
2024-01-18T01:44:11.740Z,981.18
2024-01-18T01:45:12.188Z,981.21
2024-01-18T01:46:12.430Z,981.24
2024-01-18T01:47:12.774Z,981.26
2024-01-18T01:48:13.438Z,981.27
2024-01-18T01:49:13.558Z,981.28
2024-01-18T01:50:13.758Z,981.28
2024-01-18T01:51:14.096Z,981.30
2024-01-18T01:52:14.418Z,981.33
2024-01-18T01:53:14.742Z,981.34
2024-01-18T01:54:15.090Z,981.37
2024-01-18T01:55:15.417Z,981.40
2024-01-18T01:56:15.794Z,981.42
2024-01-18T01:57:16.157Z,981.45
2024-01-18T01:58:16.448Z,981.46
2024-01-18T01:59:16.831Z,981.48
2024-01-18T02:00:17.256Z,981.49
2024-01-18T02:01:17.535Z,981.54
2024-01-18T02:02:17.805Z,981.58
2024-01-18T02:03:18.204Z,981.64
2024-01-18T02:04:18.684Z,981.68
2024-01-18T02:05:18.971Z,981.70
2024-01-18T02:06:19.313Z,981.71
2024-01-18T02:07:19.505Z,981.73
2024-01-18T02:08:19.817Z,981.74
2024-01-18T02:09:20.243Z,981.75
2024-01-18T02:10:20.613Z,981.75
2024-01-18T02:11:20.797Z,981.77
2024-01-18T02:12:21.166Z,981.80
2024-01-18T02:13:21.503Z,981.83
2024-01-18T02:14:21.855Z,981.88
2024-01-18T02:15:22.207Z,981.91
2024-01-18T02:16:22.454Z,981.92
2024-01-18T02:17:22.845Z,981.93
2024-01-18T02:18:23.243Z,981.92
2024-01-18T02:19:23.638Z,981.92
2024-01-18T02:20:23.802Z,981.93
2024-01-18T02:21:24.147Z,981.95
2024-01-18T02:22:24.474Z,981.98
2024-01-18T02:23:24.818Z,982.00
2024-01-18T02:24:25.260Z,982.01
2024-01-18T02:25:25.521Z,982.01
2024-01-18T02:26:25.880Z,982.01
2024-01-18T02:27:26.230Z,982.00
2024-01-18T02:28:26.648Z,981.99
2024-01-18T02:29:26.959Z,981.99
2024-01-18T02:30:27.348Z,982.00
2024-01-18T02:31:27.563Z,982.02
2024-01-18T02:32:28.047Z,982.02
2024-01-18T02:33:28.367Z,982.04
2024-01-18T02:34:28.637Z,982.05
2024-01-18T02:35:28.914Z,982.07
2024-01-18T02:36:29.250Z,982.08
2024-01-18T02:37:29.597Z,982.11
2024-01-18T02:38:29.901Z,982.12
2024-01-18T02:39:30.247Z,982.14
2024-01-18T02:40:30.546Z,982.15
2024-01-18T02:41:30.853Z,982.17
2024-01-18T02:42:31.251Z,982.18
2024-01-18T02:43:31.597Z,982.18
2024-01-18T02:44:32.055Z,982.19
2024-01-18T02:45:32.240Z,982.21
2024-01-18T02:46:32.515Z,982.24
2024-01-18T02:47:32.856Z,982.28
2024-01-18T02:48:33.198Z,982.32
2024-01-18T02:49:33.549Z,982.35
2024-01-18T02:50:33.858Z,982.39
2024-01-18T02:51:34.356Z,982.43
2024-01-18T02:52:34.491Z,982.48
2024-01-18T02:53:34.844Z,982.52
2024-01-18T02:54:35.227Z,982.54
2024-01-18T02:55:35.496Z,982.54
2024-01-18T02:56:35.858Z,982.55
2024-01-18T02:57:36.245Z,982.55
2024-01-18T02:58:36.491Z,982.54
2024-01-18T02:59:36.827Z,982.54
2024-01-18T03:00:37.266Z,982.54
2024-01-18T03:01:37.593Z,982.55
2024-01-18T03:02:37.917Z,982.56
2024-01-18T03:03:38.270Z,982.55
2024-01-18T03:04:38.574Z,982.55
2024-01-18T03:05:38.897Z,982.54
2024-01-18T03:06:39.366Z,982.54
2024-01-18T03:07:39.641Z,982.55
2024-01-18T03:08:39.870Z,982.55
2024-01-18T03:09:40.345Z,982.57
2024-01-18T03:10:40.623Z,982.60
2024-01-18T03:11:40.892Z,982.65
2024-01-18T03:12:41.301Z,982.69
2024-01-18T03:13:41.574Z,982.71
2024-01-18T03:14:41.944Z,982.74
2024-01-18T03:15:42.350Z,982.75
2024-01-18T03:16:42.625Z,982.75
2024-01-18T03:17:42.945Z,982.74
2024-01-18T03:18:43.352Z,982.70
2024-01-18T03:19:43.667Z,982.68
2024-01-18T03:20:43.991Z,982.64
2024-01-18T03:21:44.342Z,982.63
2024-01-18T03:22:44.630Z,982.61
2024-01-18T03:23:44.983Z,982.60
2024-01-18T03:24:45.418Z,982.60
2024-01-18T03:25:45.658Z,982.61
2024-01-18T03:26:46.022Z,982.63
2024-01-18T03:27:46.356Z,982.65
2024-01-18T03:28:46.693Z,982.68
2024-01-18T03:29:47.001Z,982.69
2024-01-18T03:30:47.401Z,982.68
2024-01-18T03:31:47.691Z,982.68
2024-01-18T03:32:48.065Z,982.67
2024-01-18T03:33:48.481Z,982.67
2024-01-18T03:34:48.795Z,982.69
2024-01-18T03:35:49.060Z,982.72
2024-01-18T03:36:49.469Z,982.74
2024-01-18T03:37:49.772Z,982.77
2024-01-18T03:38:50.103Z,982.79
2024-01-18T03:39:50.415Z,982.82
2024-01-18T03:40:50.787Z,982.84
2024-01-18T03:41:51.135Z,982.87
2024-01-18T03:42:51.497Z,982.89
2024-01-18T03:43:51.785Z,982.91
2024-01-18T03:44:52.135Z,982.91
2024-01-18T03:45:52.521Z,982.93
2024-01-18T03:46:52.825Z,982.95
2024-01-18T03:47:53.273Z,982.99
2024-01-18T03:48:53.617Z,983.01
2024-01-18T03:49:53.989Z,983.03
2024-01-18T03:50:54.202Z,983.03
2024-01-18T03:51:54.581Z,983.05
2024-01-18T03:52:54.941Z,983.04
2024-01-18T03:53:55.231Z,983.05
2024-01-18T03:54:55.590Z,983.06
2024-01-18T03:55:55.962Z,983.06
2024-01-18T03:56:56.347Z,983.07
2024-01-18T03:57:56.617Z,983.08
2024-01-18T03:58:56.972Z,983.10
2024-01-18T03:59:57.400Z,983.11
2024-01-18T04:00:57.955Z,983.12
2024-01-18T04:01:58.011Z,983.13
2024-01-18T04:02:58.393Z,983.13
2024-01-18T04:03:58.692Z,983.15
2024-01-18T04:04:59.020Z,983.16
2024-01-18T04:05:59.478Z,983.16
2024-01-18T04:06:59.844Z,983.15
2024-01-18T04:08:00.027Z,983.14
2024-01-18T04:09:00.422Z,983.13
2024-01-18T04:10:00.746Z,983.13
2024-01-18T04:11:01.108Z,983.14
2024-01-18T04:12:01.414Z,983.16
2024-01-18T04:13:01.747Z,983.20
2024-01-18T04:14:02.164Z,983.23
2024-01-18T04:15:02.550Z,983.26
2024-01-18T04:16:02.797Z,983.26
2024-01-18T04:17:03.090Z,983.27
2024-01-18T04:18:03.516Z,983.28
2024-01-18T04:19:06.068Z,983.29
2024-01-18T04:20:04.074Z,983.30
2024-01-18T04:21:04.441Z,983.31
2024-01-18T04:22:04.731Z,983.32
2024-01-18T04:23:05.066Z,983.34
2024-01-18T04:24:05.482Z,983.36
2024-01-18T04:25:05.831Z,983.41
2024-01-18T04:26:06.150Z,983.43
2024-01-18T04:27:06.542Z,983.45
2024-01-18T04:28:06.958Z,983.47
2024-01-18T04:29:07.195Z,983.49
2024-01-18T04:30:07.545Z,983.50
2024-01-18T04:31:07.841Z,983.51
2024-01-18T04:32:08.165Z,983.53
2024-01-18T04:33:08.739Z,983.56
2024-01-18T04:34:08.862Z,983.59
2024-01-18T04:35:09.289Z,983.61
2024-01-18T04:36:09.579Z,983.64
2024-01-18T04:37:09.866Z,983.66
2024-01-18T04:38:10.253Z,983.68
2024-01-18T04:39:10.720Z,983.69
2024-01-18T04:40:10.942Z,983.68
2024-01-18T04:41:11.293Z,983.70
2024-01-18T04:42:11.629Z,983.74
2024-01-18T04:43:12.040Z,983.75
2024-01-18T04:44:12.312Z,983.74
2024-01-18T04:45:12.661Z,983.76
2024-01-18T04:46:12.955Z,983.78
2024-01-18T04:47:13.290Z,983.81
2024-01-18T04:48:13.686Z,983.84
2024-01-18T04:49:14.009Z,983.88
2024-01-18T04:50:14.307Z,983.90
2024-01-18T04:51:14.678Z,983.90
2024-01-18T04:52:15.004Z,983.89
2024-01-18T04:53:15.339Z,983.90
2024-01-18T04:54:15.703Z,983.91
2024-01-18T04:55:15.988Z,983.92
2024-01-18T04:56:16.348Z,983.94
2024-01-18T04:57:16.788Z,983.96
2024-01-18T04:58:17.000Z,983.97
2024-01-18T04:59:17.358Z,983.96
2024-01-18T05:00:17.838Z,983.95
2024-01-18T05:01:18.064Z,983.90
2024-01-18T05:02:18.435Z,983.86
2024-01-18T05:03:18.789Z,983.82
2024-01-18T05:04:19.140Z,983.79
2024-01-18T05:05:19.560Z,983.79
2024-01-18T05:06:19.898Z,983.79
2024-01-18T05:07:20.184Z,983.81
2024-01-18T05:08:20.453Z,983.84
2024-01-18T05:09:20.858Z,983.85
2024-01-18T05:10:21.156Z,983.86
2024-01-18T05:11:21.490Z,983.85
2024-01-18T05:12:21.821Z,983.86
2024-01-18T05:13:22.137Z,983.88
2024-01-18T05:14:22.476Z,983.89
2024-01-18T05:15:22.903Z,983.90
2024-01-18T05:16:23.206Z,983.93
2024-01-18T05:17:23.622Z,983.93
2024-01-18T05:18:24.012Z,983.90
2024-01-18T05:19:24.224Z,983.88
2024-01-18T05:20:24.561Z,983.87
2024-01-18T05:21:24.922Z,983.88
2024-01-18T05:22:25.237Z,983.89
2024-01-18T05:23:25.586Z,983.89
2024-01-18T05:24:25.913Z,983.90
2024-01-18T05:25:26.282Z,983.90
2024-01-18T05:26:26.578Z,983.87
2024-01-18T05:27:26.922Z,983.83
2024-01-18T05:28:27.237Z,983.79
2024-01-18T05:29:27.564Z,983.76
2024-01-18T05:30:27.956Z,983.72
2024-01-18T05:31:28.258Z,983.72
2024-01-18T05:32:28.637Z,983.73
2024-01-18T05:33:29.011Z,983.76
2024-01-18T05:34:29.395Z,983.77
2024-01-18T05:35:29.660Z,983.77
2024-01-18T05:36:30.109Z,983.76
2024-01-18T05:37:30.290Z,983.74
2024-01-18T05:38:34.732Z,983.73
2024-01-18T05:39:31.068Z,983.73
2024-01-18T05:40:31.386Z,983.75
2024-01-18T05:41:31.724Z,983.78
2024-01-18T05:42:32.190Z,983.79
2024-01-18T05:43:32.387Z,983.82
2024-01-18T05:44:32.753Z,983.85
2024-01-18T05:45:33.168Z,983.89
2024-01-18T05:46:33.439Z,983.91
2024-01-18T05:47:33.812Z,983.93
2024-01-18T05:48:34.210Z,983.95
2024-01-18T05:49:34.500Z,983.94
2024-01-18T05:50:34.838Z,983.93
2024-01-18T05:51:35.182Z,983.92
2024-01-18T05:52:35.500Z,983.95
2024-01-18T05:53:35.914Z,984.01
2024-01-18T05:54:36.247Z,984.11
2024-01-18T05:55:36.543Z,984.20
2024-01-18T05:56:36.892Z,984.28
2024-01-18T05:57:37.352Z,984.38
2024-01-18T05:58:39.542Z,984.47
2024-01-18T05:59:37.969Z,984.50
2024-01-18T06:00:38.417Z,984.48
2024-01-18T06:01:38.687Z,984.45
2024-01-18T06:02:39.053Z,984.47
2024-01-18T06:03:39.424Z,984.55
2024-01-18T06:04:39.745Z,984.68
2024-01-18T06:05:40.112Z,984.78
2024-01-18T06:06:40.522Z,984.80
2024-01-18T06:07:40.816Z,984.82
2024-01-18T06:08:41.209Z,984.87
2024-01-18T06:09:41.603Z,984.91
2024-01-18T06:10:41.883Z,984.93
2024-01-18T06:11:42.246Z,984.96
2024-01-18T06:12:42.691Z,984.99
2024-01-18T06:13:42.952Z,985.00
2024-01-18T06:14:45.061Z,985.01
2024-01-18T06:15:43.683Z,985.01
2024-01-18T06:16:44.064Z,985.05
2024-01-18T06:17:44.412Z,985.09
2024-01-18T06:18:44.854Z,985.15
2024-01-18T06:19:45.130Z,985.17
2024-01-18T06:20:45.409Z,985.16
2024-01-18T06:21:45.926Z,985.12
2024-01-18T06:22:46.081Z,985.05
2024-01-18T06:23:46.343Z,984.96
2024-01-18T06:24:46.742Z,984.88
2024-01-18T06:25:46.877Z,984.90
2024-01-18T06:26:49.536Z,984.94
2024-01-18T06:27:47.488Z,984.98
2024-01-18T06:28:47.750Z,984.98
2024-01-18T06:29:47.986Z,984.94
2024-01-18T06:30:48.416Z,984.90
2024-01-18T06:31:48.577Z,984.89
2024-01-18T06:32:48.971Z,984.88
2024-01-18T06:33:49.191Z,984.86
2024-01-18T06:34:49.394Z,984.84
2024-01-18T06:35:49.692Z,984.84
2024-01-18T06:36:50.026Z,984.85
2024-01-18T06:37:50.195Z,984.85
2024-01-18T06:38:50.491Z,984.85
2024-01-18T06:39:50.835Z,984.83
2024-01-18T06:40:51.093Z,984.82
2024-01-18T06:41:51.294Z,984.82
2024-01-18T06:42:51.647Z,984.82
2024-01-18T06:43:51.885Z,984.82
2024-01-18T06:44:52.167Z,984.79
2024-01-18T06:45:52.407Z,984.77
2024-01-18T06:46:52.724Z,984.76
2024-01-18T06:47:52.991Z,984.77
2024-01-18T06:48:53.359Z,984.76
2024-01-18T06:49:53.633Z,984.78
2024-01-18T06:50:53.859Z,984.83
2024-01-18T06:51:54.165Z,984.90
2024-01-18T06:52:54.335Z,984.95
2024-01-18T06:53:54.658Z,984.98
2024-01-18T06:54:54.981Z,985.01
2024-01-18T06:55:55.190Z,985.05
2024-01-18T06:56:55.441Z,985.08
2024-01-18T06:57:55.701Z,985.12
2024-01-18T06:58:55.976Z,985.15
2024-01-18T06:59:56.513Z,985.15
2024-01-18T07:00:56.578Z,985.15
2024-01-18T07:01:56.793Z,985.16
2024-01-18T07:02:57.059Z,985.16
2024-01-18T07:03:57.452Z,985.14
2024-01-18T07:04:57.666Z,985.09
2024-01-18T07:05:57.895Z,985.05
2024-01-18T07:06:58.282Z,985.02
2024-01-18T07:07:58.455Z,985.00
2024-01-18T07:08:58.753Z,984.98
2024-01-18T07:09:59.011Z,984.97
2024-01-18T07:10:59.284Z,984.96
2024-01-18T07:11:59.579Z,984.97
2024-01-18T07:12:59.881Z,984.97
2024-01-18T07:14:00.142Z,984.98
2024-01-18T07:15:00.425Z,984.98
2024-01-18T07:16:00.837Z,984.99
2024-01-18T07:17:01.007Z,985.01
2024-01-18T07:18:01.443Z,985.05
2024-01-18T07:19:01.909Z,985.08
2024-01-18T07:20:02.017Z,985.10
2024-01-18T07:21:02.167Z,985.14
2024-01-18T07:22:02.316Z,985.17
2024-01-18T07:23:02.594Z,985.20
2024-01-18T07:24:02.809Z,985.22
2024-01-18T07:25:03.024Z,985.23
2024-01-18T07:26:03.338Z,985.25
2024-01-18T07:27:03.553Z,985.27
2024-01-18T07:28:03.759Z,985.29
2024-01-18T07:29:04.053Z,985.31
2024-01-18T07:30:04.400Z,985.33
2024-01-18T07:31:04.613Z,985.35
2024-01-18T21:08:50.899Z,998.01
2024-01-18T21:09:52.195Z,998.03
2024-01-18T21:10:52.481Z,998.04
2024-01-18T21:11:52.871Z,998.04
2024-01-18T21:12:53.197Z,998.04
2024-01-18T21:13:53.619Z,998.05
2024-01-18T21:14:53.984Z,998.08
2024-01-18T21:15:54.206Z,998.10
2024-01-18T21:16:54.562Z,998.12
2024-01-18T21:17:54.970Z,998.15
2024-01-18T21:18:55.346Z,998.19
2024-01-18T21:19:55.608Z,998.22
2024-01-18T21:20:56.060Z,998.22
2024-01-18T21:21:56.342Z,998.25
2024-01-18T21:22:56.623Z,998.28
2024-01-18T21:23:57.083Z,998.30
2024-01-18T21:24:57.352Z,998.32
2024-01-18T21:25:57.664Z,998.32
2024-01-18T21:26:58.585Z,998.34
2024-01-18T21:27:58.348Z,998.36
2024-01-18T21:28:58.673Z,998.37
2024-01-18T21:29:59.058Z,998.38
2024-01-18T21:30:59.357Z,998.41
2024-01-18T21:31:59.695Z,998.45
2024-01-18T21:33:00.154Z,998.46
2024-01-18T21:34:00.389Z,998.48
2024-01-18T21:35:00.787Z,998.51
2024-01-18T21:36:01.186Z,998.52
2024-01-18T21:37:01.412Z,998.55
2024-01-18T21:38:01.776Z,998.58
2024-01-18T21:39:02.128Z,998.60
2024-01-18T21:40:02.442Z,998.62
2024-01-18T21:41:02.796Z,998.63
2024-01-18T21:42:03.177Z,998.66
2024-01-18T21:43:03.498Z,998.69
2024-01-18T21:44:03.859Z,998.70
2024-01-18T21:45:04.179Z,998.71
2024-01-18T21:46:04.552Z,998.74
2024-01-18T21:47:04.974Z,998.76
2024-01-18T21:48:05.343Z,998.77
2024-01-18T21:49:05.665Z,998.78
2024-01-18T21:50:05.974Z,998.79
2024-01-18T21:51:06.268Z,998.82
2024-01-18T21:52:06.574Z,998.85
2024-01-18T21:53:06.870Z,998.87
2024-01-18T21:54:07.218Z,998.91
2024-01-18T21:55:07.546Z,998.94
2024-01-18T21:56:07.920Z,998.96
2024-01-18T21:57:08.312Z,998.97
2024-01-18T21:58:08.560Z,999.00
2024-01-18T21:59:08.910Z,999.03
2024-01-18T22:00:09.309Z,999.05
2024-01-18T22:01:09.663Z,999.08
2024-01-18T22:02:09.989Z,999.10
2024-01-18T22:03:10.324Z,999.12
2024-01-18T22:04:10.674Z,999.14
2024-01-18T22:05:11.042Z,999.15
2024-01-18T22:06:11.386Z,999.16
2024-01-18T22:07:11.740Z,999.15
2024-01-18T22:08:12.075Z,999.14
2024-01-18T22:09:12.365Z,999.15
2024-01-18T22:10:12.747Z,999.15
2024-01-18T22:11:13.117Z,999.17
2024-01-18T22:12:13.418Z,999.18
2024-01-18T22:13:13.756Z,999.19
2024-01-18T22:14:14.138Z,999.20
2024-01-18T22:15:14.440Z,999.21
2024-01-18T22:16:14.772Z,999.22
2024-01-18T22:17:15.128Z,999.21
2024-01-18T22:18:15.603Z,999.22
2024-01-18T22:19:29.242Z,999.23
2024-01-18T22:20:16.323Z,999.23
2024-01-18T22:21:22.772Z,999.24
2024-01-18T22:22:16.833Z,999.25
2024-01-18T22:23:17.191Z,999.26
2024-01-18T22:24:17.529Z,999.27
2024-01-18T22:25:17.853Z,999.27
2024-01-18T22:26:18.161Z,999.29
2024-01-18T22:27:18.526Z,999.31
2024-01-18T22:28:18.863Z,999.34
2024-01-18T22:29:19.323Z,999.36
2024-01-18T22:30:19.555Z,999.38
2024-01-18T22:31:19.881Z,999.41
2024-01-18T22:32:20.274Z,999.43
2024-01-18T22:33:20.918Z,999.46
2024-01-18T22:34:20.958Z,999.48
2024-01-18T22:35:21.269Z,999.48
2024-01-18T22:36:21.595Z,999.49
2024-01-18T22:37:21.931Z,999.50
2024-01-18T22:38:22.306Z,999.51
2024-01-18T22:39:22.620Z,999.52
2024-01-18T22:40:22.957Z,999.54
2024-01-18T22:41:23.344Z,999.56
2024-01-18T22:42:23.657Z,999.57
2024-01-18T22:43:24.028Z,999.60
2024-01-18T22:44:24.351Z,999.61
2024-01-18T22:45:24.673Z,999.64
2024-01-18T22:46:25.037Z,999.67
2024-01-18T22:47:25.417Z,999.70
2024-01-18T22:48:25.897Z,999.72
2024-01-18T22:49:26.168Z,999.74
2024-01-18T22:50:26.468Z,999.74
2024-01-18T22:51:26.729Z,999.75
2024-01-18T22:52:27.107Z,999.79
2024-01-18T22:53:27.430Z,999.82
2024-01-18T22:54:27.776Z,999.83
2024-01-18T22:55:28.119Z,999.84
2024-01-18T22:56:28.602Z,999.87
2024-01-18T22:57:29.059Z,999.88
2024-01-18T22:58:29.132Z,999.88
2024-01-18T22:59:29.492Z,999.90
2024-01-18T23:00:29.895Z,999.90
2024-01-18T23:01:30.189Z,999.91
2024-01-18T23:02:30.570Z,999.94
2024-01-18T23:03:30.901Z,999.97
2024-01-18T23:04:31.221Z,999.99
2024-01-18T23:05:31.654Z,1000.02
2024-01-18T23:06:31.953Z,1000.04
2024-01-18T23:07:32.263Z,1000.08
2024-01-18T23:08:32.644Z,1000.11
2024-01-18T23:09:32.943Z,1000.14
2024-01-18T23:10:33.269Z,1000.15
2024-01-18T23:11:33.660Z,1000.17
2024-01-18T23:12:33.945Z,1000.21
2024-01-18T23:13:34.283Z,1000.23
2024-01-18T23:14:34.685Z,1000.26
2024-01-18T23:15:34.980Z,1000.27
2024-01-18T23:16:35.433Z,1000.30
2024-01-18T23:17:35.746Z,1000.31
2024-01-18T23:18:36.040Z,1000.30
2024-01-18T23:19:36.382Z,1000.32
2024-01-18T23:20:36.756Z,1000.33
2024-01-18T23:21:37.050Z,1000.36
2024-01-18T23:22:37.382Z,1000.39
2024-01-18T23:23:37.827Z,1000.42
2024-01-18T23:24:38.122Z,1000.45
2024-01-18T23:25:38.479Z,1000.47
2024-01-18T23:26:38.799Z,1000.50
2024-01-18T23:27:39.132Z,1000.52
2024-01-18T23:28:39.490Z,1000.56
2024-01-18T23:29:39.885Z,1000.57
2024-01-18T23:30:40.185Z,1000.57
2024-01-18T23:31:41.470Z,1000.56
2024-01-18T23:32:40.901Z,1000.57
2024-01-18T23:33:41.282Z,1000.57
2024-01-18T23:34:41.571Z,1000.55
2024-01-18T23:35:41.896Z,1000.54
2024-01-18T23:36:42.220Z,1000.56
2024-01-18T23:37:42.603Z,1000.57
2024-01-18T23:38:42.960Z,1000.57
2024-01-18T23:39:43.273Z,1000.59
2024-01-18T23:40:43.559Z,1000.61
2024-01-18T23:41:43.965Z,1000.62
2024-01-18T23:42:44.310Z,1000.64
2024-01-18T23:43:44.662Z,1000.63
2024-01-18T23:44:44.987Z,1000.65
2024-01-18T23:45:45.307Z,1000.67
2024-01-18T23:46:45.655Z,1000.66
2024-01-18T23:47:46.060Z,1000.67
2024-01-18T23:48:46.356Z,1000.69
2024-01-18T23:49:46.660Z,1000.70
2024-01-18T23:50:47.125Z,1000.71
2024-01-18T23:51:47.331Z,1000.72
2024-01-18T23:52:47.661Z,1000.74
2024-01-18T23:53:48.069Z,1000.76
2024-01-18T23:54:48.327Z,1000.77
2024-01-18T23:55:48.694Z,1000.77
2024-01-18T23:56:49.267Z,1000.78
2024-01-18T23:57:49.404Z,1000.79
2024-01-18T23:58:49.722Z,1000.80
2024-01-18T23:59:50.169Z,1000.82
